sensor_id;sensor_type;location;lat;lon;timestamp;temperature;humidity
21844;DHT22;11084;52.482;9.108;2023-03-31T00:02:24;10.70;99.90
21844;DHT22;11084;52.482;9.108;2023-03-31T00:04:50;10.70;99.90
21844;DHT22;11084;52.482;9.108;2023-03-31T00:07:19;10.70;99.90
21844;DHT22;11084;52.482;9.108;2023-03-31T00:09:48;10.60;99.90
21844;DHT22;11084;52.482;9.108;2023-03-31T00:12:15;10.60;99.90
21844;DHT22;11084;52.482;9.108;2023-03-31T00:14:42;10.60;99.90
21844;DHT22;11084;52.482;9.108;2023-03-31T00:17:09;10.50;99.90
21844;DHT22;11084;52.482;9.108;2023-03-31T00:19:37;10.00;99.90
21844;DHT22;11084;52.482;9.108;2023-03-31T00:22:04;10.50;99.90
21844;DHT22;11084;52.482;9.108;2023-03-31T00:24:31;10.50;99.90
21844;DHT22;11084;52.482;9.108;2023-03-31T00:27:02;10.40;99.90
21844;DHT22;11084;52.482;9.108;2023-03-31T00:29:29;10.40;99.90
21844;DHT22;11084;52.482;9.108;2023-03-31T00:31:56;10.40;99.90
21844;DHT22;11084;52.482;9.108;2023-03-31T00:34:25;10.40;99.90
21844;DHT22;11084;52.482;9.108;2023-03-31T00:36:51;10.40;99.90
21844;DHT22;11084;52.482;9.108;2023-03-31T00:39:21;10.40;99.90
21844;DHT22;11084;52.482;9.108;2023-03-31T00:41:49;10.40;99.90
21844;DHT22;11084;52.482;9.108;2023-03-31T00:44:19;10.30;99.90
21844;DHT22;11084;52.482;9.108;2023-03-31T00:47:12;10.30;99.90
21844;DHT22;11084;52.482;9.108;2023-03-31T00:49:43;10.30;99.90
21844;DHT22;11084;52.482;9.108;2023-03-31T00:52:16;10.20;99.90
21844;DHT22;11084;52.482;9.108;2023-03-31T00:54:50;10.20;99.90
21844;DHT22;11084;52.482;9.108;2023-03-31T00:57:21;10.20;99.90
21844;DHT22;11084;52.482;9.108;2023-03-31T00:59:50;10.20;99.90
21844;DHT22;11084;52.482;9.108;2023-03-31T01:02:18;10.20;99.90
21844;DHT22;11084;52.482;9.108;2023-03-31T01:04:53;10.20;99.90
21844;DHT22;11084;52.482;9.108;2023-03-31T01:07:36;10.20;99.90
21844;DHT22;11084;52.482;9.108;2023-03-31T01:10:06;10.10;99.90
21844;DHT22;11084;52.482;9.108;2023-03-31T01:12:36;10.10;99.90
21844;DHT22;11084;52.482;9.108;2023-03-31T01:15:03;10.10;99.90
21844;DHT22;11084;52.482;9.108;2023-03-31T01:17:30;10.10;99.90
21844;DHT22;11084;52.482;9.108;2023-03-31T01:20:08;8.50;99.90
21844;DHT22;11084;52.482;9.108;2023-03-31T01:28:58;10.00;99.90
21844;DHT22;11084;52.482;9.108;2023-03-31T01:32:02;9.90;99.90
21844;DHT22;11084;52.482;9.108;2023-03-31T01:41:19;9.80;99.90
21844;DHT22;11084;52.482;9.108;2023-03-31T01:44:49;9.80;99.90
21844;DHT22;11084;52.482;9.108;2023-03-31T01:49:55;9.80;99.90
21844;DHT22;11084;52.482;9.108;2023-03-31T01:55:23;9.80;99.90
21844;DHT22;11084;52.482;9.108;2023-03-31T01:57:59;9.80;99.90
21844;DHT22;11084;52.482;9.108;2023-03-31T02:00:35;9.80;99.90
21844;DHT22;11084;52.482;9.108;2023-03-31T02:03:12;9.80;99.90
21844;DHT22;11084;52.482;9.108;2023-03-31T02:05:55;9.80;99.90
21844;DHT22;11084;52.482;9.108;2023-03-31T02:08:28;9.80;99.90
21844;DHT22;11084;52.482;9.108;2023-03-31T02:10:58;9.80;99.90
21844;DHT22;11084;52.482;9.108;2023-03-31T02:13:26;9.80;99.90
21844;DHT22;11084;52.482;9.108;2023-03-31T02:15:56;9.80;99.90
21844;DHT22;11084;52.482;9.108;2023-03-31T02:18:28;9.80;99.90
21844;DHT22;11084;52.482;9.108;2023-03-31T02:20:59;9.80;99.90
21844;DHT22;11084;52.482;9.108;2023-03-31T02:23:28;9.80;99.90
21844;DHT22;11084;52.482;9.108;2023-03-31T02:26:17;9.80;99.90
21844;DHT22;11084;52.482;9.108;2023-03-31T02:28:45;9.80;99.90
21844;DHT22;11084;52.482;9.108;2023-03-31T02:31:45;9.80;99.90
21844;DHT22;11084;52.482;9.108;2023-03-31T02:34:14;9.80;99.90
21844;DHT22;11084;52.482;9.108;2023-03-31T02:36:41;9.70;99.90
21844;DHT22;11084;52.482;9.108;2023-03-31T02:39:13;9.70;99.90
21844;DHT22;11084;52.482;9.108;2023-03-31T02:41:41;9.70;99.90
21844;DHT22;11084;52.482;9.108;2023-03-31T02:44:08;9.70;99.90
21844;DHT22;11084;52.482;9.108;2023-03-31T02:46:35;9.70;99.90
21844;DHT22;11084;52.482;9.108;2023-03-31T02:49:05;9.70;99.90
21844;DHT22;11084;52.482;9.108;2023-03-31T03:00:48;9.70;99.90
21844;DHT22;11084;52.482;9.108;2023-03-31T03:04:14;9.70;99.90
21844;DHT22;11084;52.482;9.108;2023-03-31T03:12:41;9.70;99.90
21844;DHT22;11084;52.482;9.108;2023-03-31T03:15:25;9.60;99.90
21844;DHT22;11084;52.482;9.108;2023-03-31T03:17:55;9.60;99.90
21844;DHT22;11084;52.482;9.108;2023-03-31T03:20:22;9.60;99.90
21844;DHT22;11084;52.482;9.108;2023-03-31T03:22:48;9.60;99.90
21844;DHT22;11084;52.482;9.108;2023-03-31T03:25:15;9.60;99.90
21844;DHT22;11084;52.482;9.108;2023-03-31T03:27:42;9.60;99.90
21844;DHT22;11084;52.482;9.108;2023-03-31T03:30:11;9.60;99.90
21844;DHT22;11084;52.482;9.108;2023-03-31T03:32:37;9.60;99.90
21844;DHT22;11084;52.482;9.108;2023-03-31T03:35:05;9.60;99.90
21844;DHT22;11084;52.482;9.108;2023-03-31T03:37:32;8.40;99.90
21844;DHT22;11084;52.482;9.108;2023-03-31T03:39:58;9.50;99.90
21844;DHT22;11084;52.482;9.108;2023-03-31T03:42:25;9.50;99.90
21844;DHT22;11084;52.482;9.108;2023-03-31T03:44:51;9.50;99.90
21844;DHT22;11084;52.482;9.108;2023-03-31T03:47:16;9.50;99.90
21844;DHT22;11084;52.482;9.108;2023-03-31T03:49:42;9.50;99.90
21844;DHT22;11084;52.482;9.108;2023-03-31T03:52:08;9.50;99.90
21844;DHT22;11084;52.482;9.108;2023-03-31T03:54:34;9.50;99.90
21844;DHT22;11084;52.482;9.108;2023-03-31T03:57:00;9.50;99.90
21844;DHT22;11084;52.482;9.108;2023-03-31T03:59:26;9.50;99.90
21844;DHT22;11084;52.482;9.108;2023-03-31T04:01:52;9.50;99.90
21844;DHT22;11084;52.482;9.108;2023-03-31T04:04:18;9.50;99.90
21844;DHT22;11084;52.482;9.108;2023-03-31T04:06:45;9.50;99.90
21844;DHT22;11084;52.482;9.108;2023-03-31T04:09:11;9.50;99.90
21844;DHT22;11084;52.482;9.108;2023-03-31T04:11:37;9.50;99.90
21844;DHT22;11084;52.482;9.108;2023-03-31T04:14:03;9.60;99.90
21844;DHT22;11084;52.482;9.108;2023-03-31T04:16:29;9.50;99.90
21844;DHT22;11084;52.482;9.108;2023-03-31T04:18:55;9.60;99.90
21844;DHT22;11084;52.482;9.108;2023-03-31T04:21:23;9.60;99.90
21844;DHT22;11084;52.482;9.108;2023-03-31T04:23:52;9.60;99.90
21844;DHT22;11084;52.482;9.108;2023-03-31T04:26:32;9.60;99.90
21844;DHT22;11084;52.482;9.108;2023-03-31T04:29:12;9.60;99.90
21844;DHT22;11084;52.482;9.108;2023-03-31T04:31:39;9.60;99.90
21844;DHT22;11084;52.482;9.108;2023-03-31T04:34:14;9.60;99.90
21844;DHT22;11084;52.482;9.108;2023-03-31T04:36:42;9.60;99.90
21844;DHT22;11084;52.482;9.108;2023-03-31T04:39:16;9.60;99.90
21844;DHT22;11084;52.482;9.108;2023-03-31T04:41:43;9.60;99.90
21844;DHT22;11084;52.482;9.108;2023-03-31T04:44:09;9.60;99.90
21844;DHT22;11084;52.482;9.108;2023-03-31T04:46:35;9.60;99.90
21844;DHT22;11084;52.482;9.108;2023-03-31T04:49:02;9.60;99.90
21844;DHT22;11084;52.482;9.108;2023-03-31T04:51:30;9.60;99.90
21844;DHT22;11084;52.482;9.108;2023-03-31T04:53:56;9.60;99.90
21844;DHT22;11084;52.482;9.108;2023-03-31T04:56:22;9.60;99.90
21844;DHT22;11084;52.482;9.108;2023-03-31T04:58:48;9.60;99.90
21844;DHT22;11084;52.482;9.108;2023-03-31T05:01:14;9.60;99.90
21844;DHT22;11084;52.482;9.108;2023-03-31T05:03:43;9.60;99.90
21844;DHT22;11084;52.482;9.108;2023-03-31T05:06:13;9.60;99.90
21844;DHT22;11084;52.482;9.108;2023-03-31T05:08:40;9.60;99.90
21844;DHT22;11084;52.482;9.108;2023-03-31T05:11:07;9.60;99.90
21844;DHT22;11084;52.482;9.108;2023-03-31T05:13:33;9.60;99.90
21844;DHT22;11084;52.482;9.108;2023-03-31T05:16:06;9.60;99.90
21844;DHT22;11084;52.482;9.108;2023-03-31T05:18:33;9.60;99.90
21844;DHT22;11084;52.482;9.108;2023-03-31T05:21:17;9.60;99.90
21844;DHT22;11084;52.482;9.108;2023-03-31T05:23:44;9.60;99.90
21844;DHT22;11084;52.482;9.108;2023-03-31T05:26:11;9.60;99.90
21844;DHT22;11084;52.482;9.108;2023-03-31T05:28:38;9.60;99.90
21844;DHT22;11084;52.482;9.108;2023-03-31T05:31:06;9.60;99.90
21844;DHT22;11084;52.482;9.108;2023-03-31T05:33:33;9.60;99.90
21844;DHT22;11084;52.482;9.108;2023-03-31T05:36:05;9.60;99.90
21844;DHT22;11084;52.482;9.108;2023-03-31T05:38:35;9.70;99.90
21844;DHT22;11084;52.482;9.108;2023-03-31T05:41:01;9.60;99.90
21844;DHT22;11084;52.482;9.108;2023-03-31T05:43:27;9.60;99.90
21844;DHT22;11084;52.482;9.108;2023-03-31T05:45:53;9.60;99.90
21844;DHT22;11084;52.482;9.108;2023-03-31T05:48:19;9.70;99.90
21844;DHT22;11084;52.482;9.108;2023-03-31T05:50:46;9.70;99.90
21844;DHT22;11084;52.482;9.108;2023-03-31T05:53:12;9.60;99.90
21844;DHT22;11084;52.482;9.108;2023-03-31T05:55:39;9.60;99.90
21844;DHT22;11084;52.482;9.108;2023-03-31T05:58:05;9.60;99.90
21844;DHT22;11084;52.482;9.108;2023-03-31T06:00:32;9.70;99.90
21844;DHT22;11084;52.482;9.108;2023-03-31T06:02:58;8.10;99.90
21844;DHT22;11084;52.482;9.108;2023-03-31T06:05:24;9.70;99.90
21844;DHT22;11084;52.482;9.108;2023-03-31T06:07:55;9.70;99.90
21844;DHT22;11084;52.482;9.108;2023-03-31T06:10:21;9.70;99.90
21844;DHT22;11084;52.482;9.108;2023-03-31T06:12:47;9.80;99.90
21844;DHT22;11084;52.482;9.108;2023-03-31T06:15:13;9.80;99.90
21844;DHT22;11084;52.482;9.108;2023-03-31T06:17:39;9.80;99.90
21844;DHT22;11084;52.482;9.108;2023-03-31T06:20:06;9.80;99.90
21844;DHT22;11084;52.482;9.108;2023-03-31T06:22:32;9.80;99.90
21844;DHT22;11084;52.482;9.108;2023-03-31T06:24:58;9.80;99.90
21844;DHT22;11084;52.482;9.108;2023-03-31T06:27:24;9.80;99.90
21844;DHT22;11084;52.482;9.108;2023-03-31T06:29:50;9.80;99.90
21844;DHT22;11084;52.482;9.108;2023-03-31T06:32:16;9.80;99.90
21844;DHT22;11084;52.482;9.108;2023-03-31T06:34:42;9.80;99.90
21844;DHT22;11084;52.482;9.108;2023-03-31T06:37:08;9.80;99.90
21844;DHT22;11084;52.482;9.108;2023-03-31T06:39:34;9.70;99.90
21844;DHT22;11084;52.482;9.108;2023-03-31T06:42:00;9.80;99.90
21844;DHT22;11084;52.482;9.108;2023-03-31T06:44:27;9.80;99.90
21844;DHT22;11084;52.482;9.108;2023-03-31T06:46:56;9.80;99.90
21844;DHT22;11084;52.482;9.108;2023-03-31T06:49:22;9.90;99.90
21844;DHT22;11084;52.482;9.108;2023-03-31T06:51:49;9.80;99.90
21844;DHT22;11084;52.482;9.108;2023-03-31T06:54:15;9.80;99.90
21844;DHT22;11084;52.482;9.108;2023-03-31T06:56:41;9.90;99.90
21844;DHT22;11084;52.482;9.108;2023-03-31T06:59:08;9.90;99.90
21844;DHT22;11084;52.482;9.108;2023-03-31T07:01:34;9.90;99.90
21844;DHT22;11084;52.482;9.108;2023-03-31T07:04:02;9.90;99.90
21844;DHT22;11084;52.482;9.108;2023-03-31T07:06:29;9.90;99.90
21844;DHT22;11084;52.482;9.108;2023-03-31T07:08:55;9.90;99.90
21844;DHT22;11084;52.482;9.108;2023-03-31T07:11:21;10.00;99.90
21844;DHT22;11084;52.482;9.108;2023-03-31T07:13:47;10.00;99.90
21844;DHT22;11084;52.482;9.108;2023-03-31T07:16:13;10.00;99.90
21844;DHT22;11084;52.482;9.108;2023-03-31T07:18:39;10.00;99.90
21844;DHT22;11084;52.482;9.108;2023-03-31T07:21:07;10.00;99.90
21844;DHT22;11084;52.482;9.108;2023-03-31T07:23:33;10.00;99.90
21844;DHT22;11084;52.482;9.108;2023-03-31T07:26:00;10.00;99.90
21844;DHT22;11084;52.482;9.108;2023-03-31T07:28:30;10.00;99.90
21844;DHT22;11084;52.482;9.108;2023-03-31T07:30:56;10.00;99.90
21844;DHT22;11084;52.482;9.108;2023-03-31T07:33:22;10.00;99.90
21844;DHT22;11084;52.482;9.108;2023-03-31T07:35:48;10.00;99.90
21844;DHT22;11084;52.482;9.108;2023-03-31T07:38:14;10.00;99.90
21844;DHT22;11084;52.482;9.108;2023-03-31T07:40:43;10.00;99.90
21844;DHT22;11084;52.482;9.108;2023-03-31T07:43:10;10.00;99.90
21844;DHT22;11084;52.482;9.108;2023-03-31T07:45:38;10.00;99.90
21844;DHT22;11084;52.482;9.108;2023-03-31T07:48:05;9.90;99.90
21844;DHT22;11084;52.482;9.108;2023-03-31T07:50:31;9.90;99.90
21844;DHT22;11084;52.482;9.108;2023-03-31T07:53:03;10.00;99.90
21844;DHT22;11084;52.482;9.108;2023-03-31T07:55:29;9.90;99.90
21844;DHT22;11084;52.482;9.108;2023-03-31T07:57:55;9.90;99.90
21844;DHT22;11084;52.482;9.108;2023-03-31T08:00:22;9.90;99.90
21844;DHT22;11084;52.482;9.108;2023-03-31T08:02:48;9.90;99.90
21844;DHT22;11084;52.482;9.108;2023-03-31T08:05:16;10.00;99.90
21844;DHT22;11084;52.482;9.108;2023-03-31T08:07:45;10.00;99.90
21844;DHT22;11084;52.482;9.108;2023-03-31T08:10:16;10.00;99.90
21844;DHT22;11084;52.482;9.108;2023-03-31T08:12:45;10.00;99.90
21844;DHT22;11084;52.482;9.108;2023-03-31T08:15:11;10.10;99.90
21844;DHT22;11084;52.482;9.108;2023-03-31T08:17:38;10.00;99.90
21844;DHT22;11084;52.482;9.108;2023-03-31T08:20:05;10.10;99.90
21844;DHT22;11084;52.482;9.108;2023-03-31T08:22:32;10.10;99.90
21844;DHT22;11084;52.482;9.108;2023-03-31T08:24:58;10.10;99.90
21844;DHT22;11084;52.482;9.108;2023-03-31T08:27:24;10.10;99.90
21844;DHT22;11084;52.482;9.108;2023-03-31T08:29:51;10.10;99.90
21844;DHT22;11084;52.482;9.108;2023-03-31T08:32:17;10.10;99.90
21844;DHT22;11084;52.482;9.108;2023-03-31T08:34:43;10.20;99.90
21844;DHT22;11084;52.482;9.108;2023-03-31T08:37:10;10.20;99.90
21844;DHT22;11084;52.482;9.108;2023-03-31T08:39:36;10.20;99.90
21844;DHT22;11084;52.482;9.108;2023-03-31T08:42:26;10.30;99.90
21844;DHT22;11084;52.482;9.108;2023-03-31T08:45:16;10.40;99.90
21844;DHT22;11084;52.482;9.108;2023-03-31T08:47:45;10.40;99.90
21844;DHT22;11084;52.482;9.108;2023-03-31T08:50:24;10.40;99.90
21844;DHT22;11084;52.482;9.108;2023-03-31T08:56:04;10.40;99.90
21844;DHT22;11084;52.482;9.108;2023-03-31T08:58:44;10.50;99.90
21844;DHT22;11084;52.482;9.108;2023-03-31T09:01:21;10.60;99.90
21844;DHT22;11084;52.482;9.108;2023-03-31T09:04:18;10.70;99.90
21844;DHT22;11084;52.482;9.108;2023-03-31T09:18:30;10.80;99.90
21844;DHT22;11084;52.482;9.108;2023-03-31T09:21:06;10.80;99.90
21844;DHT22;11084;52.482;9.108;2023-03-31T09:23:43;10.90;99.90
21844;DHT22;11084;52.482;9.108;2023-03-31T09:28:59;10.90;99.90
21844;DHT22;11084;52.482;9.108;2023-03-31T09:31:26;10.90;99.90
21844;DHT22;11084;52.482;9.108;2023-03-31T09:33:58;10.90;99.90
21844;DHT22;11084;52.482;9.108;2023-03-31T09:36:26;10.00;99.90
21844;DHT22;11084;52.482;9.108;2023-03-31T09:38:52;10.90;99.90
21844;DHT22;11084;52.482;9.108;2023-03-31T09:41:18;10.90;99.90
21844;DHT22;11084;52.482;9.108;2023-03-31T09:43:47;10.90;99.90
21844;DHT22;11084;52.482;9.108;2023-03-31T09:46:33;11.00;99.90
21844;DHT22;11084;52.482;9.108;2023-03-31T09:49:13;11.00;99.90
21844;DHT22;11084;52.482;9.108;2023-03-31T09:51:44;10.90;99.90
21844;DHT22;11084;52.482;9.108;2023-03-31T09:54:30;10.90;99.90
21844;DHT22;11084;52.482;9.108;2023-03-31T09:57:33;10.90;99.90
21844;DHT22;11084;52.482;9.108;2023-03-31T10:00:22;10.90;99.90
21844;DHT22;11084;52.482;9.108;2023-03-31T10:02:52;10.90;99.90
21844;DHT22;11084;52.482;9.108;2023-03-31T10:13:51;10.90;99.90
21844;DHT22;11084;52.482;9.108;2023-03-31T10:16:47;10.90;99.90
21844;DHT22;11084;52.482;9.108;2023-03-31T10:19:25;10.90;99.90
21844;DHT22;11084;52.482;9.108;2023-03-31T10:22:13;11.00;99.90
21844;DHT22;11084;52.482;9.108;2023-03-31T10:24:47;11.00;99.90
21844;DHT22;11084;52.482;9.108;2023-03-31T10:27:30;11.00;99.90
21844;DHT22;11084;52.482;9.108;2023-03-31T10:29:58;11.00;99.90
21844;DHT22;11084;52.482;9.108;2023-03-31T10:32:31;11.00;99.90
21844;DHT22;11084;52.482;9.108;2023-03-31T10:35:21;11.10;99.90
21844;DHT22;11084;52.482;9.108;2023-03-31T10:37:49;11.10;99.90
21844;DHT22;11084;52.482;9.108;2023-03-31T10:40:26;11.20;99.90
21844;DHT22;11084;52.482;9.108;2023-03-31T10:43:15;11.20;99.90
21844;DHT22;11084;52.482;9.108;2023-03-31T10:45:51;11.30;99.90
21844;DHT22;11084;52.482;9.108;2023-03-31T10:51:05;11.30;99.90
21844;DHT22;11084;52.482;9.108;2023-03-31T10:53:42;11.30;99.90
21844;DHT22;11084;52.482;9.108;2023-03-31T11:07:45;11.70;99.90
21844;DHT22;11084;52.482;9.108;2023-03-31T11:13:19;11.80;99.90
21844;DHT22;11084;52.482;9.108;2023-03-31T11:19:32;12.00;99.90
21844;DHT22;11084;52.482;9.108;2023-03-31T11:22:43;12.20;99.90
21844;DHT22;11084;52.482;9.108;2023-03-31T11:28:19;11.40;99.90
21844;DHT22;11084;52.482;9.108;2023-03-31T11:34:52;12.40;99.90
21844;DHT22;11084;52.482;9.108;2023-03-31T11:37:33;12.40;99.90
21844;DHT22;11084;52.482;9.108;2023-03-31T11:43:08;12.40;99.90
21844;DHT22;11084;52.482;9.108;2023-03-31T11:45:44;12.40;99.90
21844;DHT22;11084;52.482;9.108;2023-03-31T11:48:21;12.40;99.90
21844;DHT22;11084;52.482;9.108;2023-03-31T11:51:15;12.40;99.90
21844;DHT22;11084;52.482;9.108;2023-03-31T11:53:46;12.50;99.90
21844;DHT22;11084;52.482;9.108;2023-03-31T11:56:14;13.90;99.90
21844;DHT22;11084;52.482;9.108;2023-03-31T11:58:53;12.50;99.90
21844;DHT22;11084;52.482;9.108;2023-03-31T12:01:48;12.50;99.90
21844;DHT22;11084;52.482;9.108;2023-03-31T12:04:39;12.60;99.90
21844;DHT22;11084;52.482;9.108;2023-03-31T12:07:21;12.60;99.90
21844;DHT22;11084;52.482;9.108;2023-03-31T12:15:38;12.80;99.90
21844;DHT22;11084;52.482;9.108;2023-03-31T12:18:12;12.80;99.90
21844;DHT22;11084;52.482;9.108;2023-03-31T12:20:44;12.90;99.90
21844;DHT22;11084;52.482;9.108;2023-03-31T12:23:32;12.90;99.90
21844;DHT22;11084;52.482;9.108;2023-03-31T12:28:57;13.00;99.90
21844;DHT22;11084;52.482;9.108;2023-03-31T12:31:27;13.10;99.90
21844;DHT22;11084;52.482;9.108;2023-03-31T12:42:00;13.40;99.90
21844;DHT22;11084;52.482;9.108;2023-03-31T12:47:48;13.40;99.90
21844;DHT22;11084;52.482;9.108;2023-03-31T12:53:43;13.40;99.90
21844;DHT22;11084;52.482;9.108;2023-03-31T12:59:37;13.40;99.90
21844;DHT22;11084;52.482;9.108;2023-03-31T13:04:36;13.30;99.90
21844;DHT22;11084;52.482;9.108;2023-03-31T13:07:03;13.30;99.90
21844;DHT22;11084;52.482;9.108;2023-03-31T13:09:37;13.20;99.90
21844;DHT22;11084;52.482;9.108;2023-03-31T13:12:07;13.10;99.90
21844;DHT22;11084;52.482;9.108;2023-03-31T13:14:39;13.10;99.90
21844;DHT22;11084;52.482;9.108;2023-03-31T13:20:14;13.10;99.90
21844;DHT22;11084;52.482;9.108;2023-03-31T13:23:03;13.20;99.90
21844;DHT22;11084;52.482;9.108;2023-03-31T13:30:57;13.40;99.90
21844;DHT22;11084;52.482;9.108;2023-03-31T13:33:38;13.50;99.90
21844;DHT22;11084;52.482;9.108;2023-03-31T13:36:48;13.50;99.90
21844;DHT22;11084;52.482;9.108;2023-03-31T13:52:03;13.80;99.90
21844;DHT22;11084;52.482;9.108;2023-03-31T13:58:32;13.90;99.90
21844;DHT22;11084;52.482;9.108;2023-03-31T14:06:55;14.00;99.90
21844;DHT22;11084;52.482;9.108;2023-03-31T14:09:36;14.00;99.90
21844;DHT22;11084;52.482;9.108;2023-03-31T14:15:00;14.10;99.90
21844;DHT22;11084;52.482;9.108;2023-03-31T14:17:46;14.10;99.90
21844;DHT22;11084;52.482;9.108;2023-03-31T14:32:25;14.70;99.90
21844;DHT22;11084;52.482;9.108;2023-03-31T14:38:13;14.80;99.90
21844;DHT22;11084;52.482;9.108;2023-03-31T14:40:48;14.80;99.90
21844;DHT22;11084;52.482;9.108;2023-03-31T14:43:25;14.70;99.90
21844;DHT22;11084;52.482;9.108;2023-03-31T14:45:58;14.60;99.90
21844;DHT22;11084;52.482;9.108;2023-03-31T14:48:45;14.60;99.90
21844;DHT22;11084;52.482;9.108;2023-03-31T14:51:17;14.60;99.90
21844;DHT22;11084;52.482;9.108;2023-03-31T14:54:00;14.50;99.90
21844;DHT22;11084;52.482;9.108;2023-03-31T14:56:36;14.40;99.90
21844;DHT22;11084;52.482;9.108;2023-03-31T14:59:04;14.30;99.90
21844;DHT22;11084;52.482;9.108;2023-03-31T15:01:34;14.30;99.90
21844;DHT22;11084;52.482;9.108;2023-03-31T15:04:12;14.20;99.90
21844;DHT22;11084;52.482;9.108;2023-03-31T15:06:40;14.10;99.90
21844;DHT22;11084;52.482;9.108;2023-03-31T15:09:17;14.00;99.90
21844;DHT22;11084;52.482;9.108;2023-03-31T15:12:03;13.90;99.90
21844;DHT22;11084;52.482;9.108;2023-03-31T15:14:51;13.80;99.90
21844;DHT22;11084;52.482;9.108;2023-03-31T15:17:23;13.80;99.90
21844;DHT22;11084;52.482;9.108;2023-03-31T15:19:56;13.70;99.90
21844;DHT22;11084;52.482;9.108;2023-03-31T15:22:26;13.70;99.90
21844;DHT22;11084;52.482;9.108;2023-03-31T15:24:53;13.60;99.90
21844;DHT22;11084;52.482;9.108;2023-03-31T15:29:58;13.50;99.90
21844;DHT22;11084;52.482;9.108;2023-03-31T15:32:34;13.50;99.90
21844;DHT22;11084;52.482;9.108;2023-03-31T15:35:02;13.40;99.90
21844;DHT22;11084;52.482;9.108;2023-03-31T15:37:39;13.40;99.90
21844;DHT22;11084;52.482;9.108;2023-03-31T15:40:27;13.30;99.90
21844;DHT22;11084;52.482;9.108;2023-03-31T15:43:04;13.30;99.90
21844;DHT22;11084;52.482;9.108;2023-03-31T15:48:19;13.20;99.90
21844;DHT22;11084;52.482;9.108;2023-03-31T15:53:50;13.20;99.90
21844;DHT22;11084;52.482;9.108;2023-03-31T15:56:27;13.20;99.90
21844;DHT22;11084;52.482;9.108;2023-03-31T15:59:27;13.20;99.90
21844;DHT22;11084;52.482;9.108;2023-03-31T16:01:55;13.30;99.90
21844;DHT22;11084;52.482;9.108;2023-03-31T16:04:31;13.20;99.90
21844;DHT22;11084;52.482;9.108;2023-03-31T16:07:05;13.20;99.90
21844;DHT22;11084;52.482;9.108;2023-03-31T16:12:38;13.00;99.90
21844;DHT22;11084;52.482;9.108;2023-03-31T16:15:14;13.10;99.90
21844;DHT22;11084;52.482;9.108;2023-03-31T16:17:48;13.10;99.90
21844;DHT22;11084;52.482;9.108;2023-03-31T16:20:33;13.00;99.90
21844;DHT22;11084;52.482;9.108;2023-03-31T16:23:14;12.90;99.90
21844;DHT22;11084;52.482;9.108;2023-03-31T16:25:43;12.90;99.90
21844;DHT22;11084;52.482;9.108;2023-03-31T16:28:49;12.80;99.90
21844;DHT22;11084;52.482;9.108;2023-03-31T16:31:27;12.80;99.90
21844;DHT22;11084;52.482;9.108;2023-03-31T16:33:56;12.70;99.90
21844;DHT22;11084;52.482;9.108;2023-03-31T16:36:23;12.60;99.90
21844;DHT22;11084;52.482;9.108;2023-03-31T16:39:16;12.60;99.90
21844;DHT22;11084;52.482;9.108;2023-03-31T16:41:43;12.50;99.90
21844;DHT22;11084;52.482;9.108;2023-03-31T16:44:09;12.50;99.90
21844;DHT22;11084;52.482;9.108;2023-03-31T16:46:35;12.40;99.90
21844;DHT22;11084;52.482;9.108;2023-03-31T16:49:01;12.30;99.90
21844;DHT22;11084;52.482;9.108;2023-03-31T16:51:28;12.30;99.90
21844;DHT22;11084;52.482;9.108;2023-03-31T16:53:54;12.30;99.90
21844;DHT22;11084;52.482;9.108;2023-03-31T16:56:20;12.20;99.90
21844;DHT22;11084;52.482;9.108;2023-03-31T16:58:47;12.20;99.90
21844;DHT22;11084;52.482;9.108;2023-03-31T17:01:14;12.10;99.90
21844;DHT22;11084;52.482;9.108;2023-03-31T17:03:40;12.10;99.90
21844;DHT22;11084;52.482;9.108;2023-03-31T17:06:11;12.10;99.90
21844;DHT22;11084;52.482;9.108;2023-03-31T17:08:38;12.10;99.90
21844;DHT22;11084;52.482;9.108;2023-03-31T17:11:09;12.00;99.90
21844;DHT22;11084;52.482;9.108;2023-03-31T17:13:40;12.00;99.90
21844;DHT22;11084;52.482;9.108;2023-03-31T17:16:08;12.00;99.90
21844;DHT22;11084;52.482;9.108;2023-03-31T17:18:36;12.00;99.90
21844;DHT22;11084;52.482;9.108;2023-03-31T17:21:07;11.90;99.90
21844;DHT22;11084;52.482;9.108;2023-03-31T17:23:36;11.90;99.90
21844;DHT22;11084;52.482;9.108;2023-03-31T17:26:04;11.90;99.90
21844;DHT22;11084;52.482;9.108;2023-03-31T17:28:32;11.80;99.90
21844;DHT22;11084;52.482;9.108;2023-03-31T17:30:58;11.70;99.90
21844;DHT22;11084;52.482;9.108;2023-03-31T17:33:24;11.70;99.90
21844;DHT22;11084;52.482;9.108;2023-03-31T17:35:58;11.60;99.90
21844;DHT22;11084;52.482;9.108;2023-03-31T17:38:25;11.60;99.90
21844;DHT22;11084;52.482;9.108;2023-03-31T17:40:51;11.50;99.90
21844;DHT22;11084;52.482;9.108;2023-03-31T17:43:19;11.50;99.90
21844;DHT22;11084;52.482;9.108;2023-03-31T17:45:46;11.40;99.90
21844;DHT22;11084;52.482;9.108;2023-03-31T17:48:12;11.40;99.90
21844;DHT22;11084;52.482;9.108;2023-03-31T17:50:38;11.40;99.90
21844;DHT22;11084;52.482;9.108;2023-03-31T17:53:04;11.30;99.90
21844;DHT22;11084;52.482;9.108;2023-03-31T17:55:37;11.30;99.90
21844;DHT22;11084;52.482;9.108;2023-03-31T17:58:04;11.20;99.90
21844;DHT22;11084;52.482;9.108;2023-03-31T18:00:32;9.60;99.90
21844;DHT22;11084;52.482;9.108;2023-03-31T18:02:58;11.20;99.90
21844;DHT22;11084;52.482;9.108;2023-03-31T18:05:24;11.10;99.90
21844;DHT22;11084;52.482;9.108;2023-03-31T18:07:50;11.10;99.90
21844;DHT22;11084;52.482;9.108;2023-03-31T18:10:16;11.10;99.90
21844;DHT22;11084;52.482;9.108;2023-03-31T18:12:44;11.00;99.90
21844;DHT22;11084;52.482;9.108;2023-03-31T18:15:11;11.00;99.90
21844;DHT22;11084;52.482;9.108;2023-03-31T18:17:37;11.00;99.90
21844;DHT22;11084;52.482;9.108;2023-03-31T18:20:03;10.90;99.90
21844;DHT22;11084;52.482;9.108;2023-03-31T18:22:30;10.90;99.90
21844;DHT22;11084;52.482;9.108;2023-03-31T18:24:57;10.80;99.90
21844;DHT22;11084;52.482;9.108;2023-03-31T18:27:23;10.80;99.90
21844;DHT22;11084;52.482;9.108;2023-03-31T18:29:49;10.70;99.90
21844;DHT22;11084;52.482;9.108;2023-03-31T18:32:15;10.70;99.90
21844;DHT22;11084;52.482;9.108;2023-03-31T18:34:41;10.60;99.90
21844;DHT22;11084;52.482;9.108;2023-03-31T18:37:08;10.60;99.90
21844;DHT22;11084;52.482;9.108;2023-03-31T18:39:34;10.60;99.90
21844;DHT22;11084;52.482;9.108;2023-03-31T18:42:00;10.60;99.90
21844;DHT22;11084;52.482;9.108;2023-03-31T18:44:27;8.10;99.90
21844;DHT22;11084;52.482;9.108;2023-03-31T18:46:54;10.60;99.90
21844;DHT22;11084;52.482;9.108;2023-03-31T18:49:20;10.50;99.90
21844;DHT22;11084;52.482;9.108;2023-03-31T18:51:47;10.50;99.90
21844;DHT22;11084;52.482;9.108;2023-03-31T18:54:13;10.50;99.90
21844;DHT22;11084;52.482;9.108;2023-03-31T18:56:40;10.50;99.90
21844;DHT22;11084;52.482;9.108;2023-03-31T18:59:06;10.50;99.90
21844;DHT22;11084;52.482;9.108;2023-03-31T19:01:32;10.50;99.90
21844;DHT22;11084;52.482;9.108;2023-03-31T19:04:01;10.40;99.90